Time;durP1;ratioP1;P1;durP2;ratioP2;P2;SDS_P1;SDS_P2;PMS_P1;PMS_P2;Temp;Humidity;BMP_temperature;BMP_pressure;BME280_temperature;BME280_humidity;BME280_pressure;Samples;Min_cycle;Max_cycle;Signal;HPM_P1;HPM_P2
2024/04/24 00:00:04;;;;;;;0.30;0.30;;;;;;;11.82;98.60;92426.66;568887;26;792;-71
2024/04/24 00:00:19;;;;;;;0.30;0.30;;;;;;;11.76;98.08;92415.88;568637;26;922;-71
2024/04/24 00:00:35;;;;;;;0.70;0.70;;;;;;;11.81;98.30;92423.16;568765;26;1860;-71
2024/04/24 00:00:50;;;;;;;0.60;0.60;;;;;;;11.80;98.04;92418.22;564595;26;1167;-71
2024/04/24 00:01:06;;;;;;;0.20;0.20;;;;;;;11.80;98.23;92429.28;564871;26;911;-71
2024/04/24 00:01:21;;;;;;;0.20;0.20;;;;;;;11.82;98.23;92426.66;564855;26;822;-71
2024/04/24 00:01:37;;;;;;;0.20;0.20;;;;;;;11.81;98.19;92428.69;565025;26;821;-71
2024/04/24 00:01:52;;;;;;;0.30;0.30;;;;;;;11.78;98.07;92423.59;565005;26;921;-71
2024/04/24 00:02:07;;;;;;;0.30;0.30;;;;;;;11.78;98.00;92427.06;565057;26;904;-71
2024/04/24 00:02:23;;;;;;;0.73;0.73;;;;;;;11.77;98.10;92419.38;565057;26;877;-71
2024/04/24 00:02:38;;;;;;;0.73;0.73;;;;;;;11.79;98.01;92423.00;565383;26;830;-71
2024/04/24 00:02:54;;;;;;;0.30;0.30;;;;;;;11.76;97.74;92420.69;569091;26;885;-71
2024/04/24 00:03:09;;;;;;;0.57;0.57;;;;;;;11.74;98.12;92421.25;569015;26;809;-71
2024/04/24 00:03:25;;;;;;;1.20;1.17;;;;;;;11.72;98.16;92420.38;569050;26;794;-72
2024/04/24 00:03:40;;;;;;;1.27;1.23;;;;;;;11.69;98.52;92414.00;568919;26;832;-71
2024/04/24 00:03:56;;;;;;;0.55;0.55;;;;;;;11.66;98.52;92406.81;569089;26;866;-72
2024/04/24 00:04:11;;;;;;;0.30;0.30;;;;;;;11.64;98.53;92422.53;568921;26;948;-71
2024/04/24 00:04:26;;;;;;;0.30;0.30;;;;;;;11.61;98.91;92418.88;569091;26;833;-71
2024/04/24 00:04:42;;;;;;;0.32;0.32;;;;;;;11.61;99.26;92418.19;568843;26;838;-71
2024/04/24 00:05:01;;;;;;;0.40;0.40;;;;;;;11.62;99.11;92416.84;569042;26;1433;-71
2024/04/24 00:05:17;;;;;;;0.68;0.68;;;;;;;11.63;98.73;92418.31;569051;26;885;-71
2024/04/24 00:05:33;;;;;;;0.63;0.63;;;;;;;11.66;98.95;92414.38;568998;26;801;-71
2024/04/24 00:05:48;;;;;;;0.47;0.47;;;;;;;11.62;99.12;92420.34;568969;26;940;-71
2024/04/24 00:06:04;;;;;;;0.47;0.47;;;;;;;11.62;99.40;92416.84;569018;26;786;-72
2024/04/24 00:06:21;;;;;;;0.60;0.60;;;;;;;11.65;99.21;92412.94;568829;26;937;-71
2024/04/24 00:06:37;;;;;;;0.22;0.22;;;;;;;11.67;99.05;92416.63;568733;26;1648;-71
2024/04/24 00:06:52;;;;;;;0.28;0.28;;;;;;;11.67;98.83;92410.34;568768;26;962;-71
2024/04/24 00:07:08;;;;;;;0.60;0.60;;;;;;;11.69;98.97;92416.75;568780;26;854;-71
2024/04/24 00:07:23;;;;;;;0.87;0.87;;;;;;;11.68;98.82;92412.53;568787;26;1009;-72
2024/04/24 00:07:39;;;;;;;0.70;0.70;;;;;;;11.69;98.80;92413.25;568787;26;818;-71
2024/04/24 00:07:54;;;;;;;0.43;0.43;;;;;;;11.69;98.59;92413.25;568690;26;912;-72
2024/04/24 00:08:10;;;;;;;1.10;0.90;;;;;;;11.72;98.89;92412.09;568822;26;893;-71
2024/04/24 00:08:25;;;;;;;1.00;0.90;;;;;;;11.73;98.76;92419.81;568813;26;794;-71
2024/04/24 00:08:40;;;;;;;0.20;0.20;;;;;;;11.72;98.81;92418.34;568743;26;913;-71
2024/04/24 00:08:56;;;;;;;0.20;0.20;;;;;;;11.74;98.72;92417.75;568886;26;897;-71
2024/04/24 00:09:12;;;;;;;0.60;0.60;;;;;;;11.73;98.55;92414.28;568702;26;889;-71
2024/04/24 00:09:27;;;;;;;0.70;0.70;;;;;;;11.72;98.31;92415.59;568801;26;798;-71
2024/04/24 00:09:42;;;;;;;0.40;0.40;;;;;;;11.67;98.62;92413.84;568769;26;782;-71
2024/04/24 00:09:58;;;;;;;0.80;0.80;;;;;;;11.67;98.71;92413.84;568846;26;917;-72
2024/04/24 00:10:14;;;;;;;0.80;0.80;;;;;;;11.57;98.42;92395.75;568792;26;858;-72
2024/04/24 00:10:30;;;;;;;0.60;0.60;;;;;;;11.67;98.88;92411.09;568754;26;807;-71
2024/04/24 00:10:45;;;;;;;0.60;0.60;;;;;;;11.68;98.89;92409.03;568829;26;818;-71
2024/04/24 00:11:00;;;;;;;0.33;0.33;;;;;;;11.69;99.00;92407.72;568765;26;905;-73
2024/04/24 00:11:18;;;;;;;0.30;0.30;;;;;;;11.70;98.69;92409.16;568817;26;790;-71
2024/04/24 00:11:33;;;;;;;0.20;0.20;;;;;;;11.71;98.83;92405.09;568709;26;881;-71
2024/04/24 00:11:49;;;;;;;0.30;0.30;;;;;;;11.69;98.87;92402.94;568805;26;766;-71
2024/04/24 00:12:04;;;;;;;0.40;0.40;;;;;;;11.69;99.02;92407.72;568839;26;838;-72
2024/04/24 00:12:20;;;;;;;0.33;0.33;;;;;;;11.67;98.32;92405.56;568863;26;809;-71
2024/04/24 00:12:35;;;;;;;0.60;0.60;;;;;;;11.64;98.83;92400.41;568747;26;912;-71
2024/04/24 00:12:50;;;;;;;0.60;0.60;;;;;;;11.43;98.94;92374.06;568679;26;774;-71
2024/04/24 00:13:06;;;;;;;0.30;0.30;;;;;;;11.54;98.95;92383.09;568939;26;790;-71
2024/04/24 00:13:21;;;;;;;0.40;0.40;;;;;;;11.60;99.03;92394.59;568680;26;872;-71
2024/04/24 00:13:37;;;;;;;0.37;0.37;;;;;;;11.59;99.01;92396.63;568871;26;778;-71
2024/04/24 00:13:52;;;;;;;0.20;0.20;;;;;;;11.60;99.22;92394.59;568805;26;892;-71
2024/04/24 00:14:08;;;;;;;0.20;0.20;;;;;;;11.61;99.61;92385.72;568721;26;885;-71
2024/04/24 00:14:25;;;;;;;0.30;0.30;;;;;;;11.52;99.27;92375.38;568766;26;869;-71
2024/04/24 00:14:40;;;;;;;0.30;0.30;;;;;;;11.65;99.40;92393.59;568640;26;846;-71
2024/04/24 00:14:56;;;;;;;0.30;0.30;;;;;;;11.62;99.07;92389.22;564678;26;1108;-71
2024/04/24 00:15:11;;;;;;;0.30;0.30;;;;;;;11.59;99.31;92382.81;564797;26;838;-71
2024/04/24 00:15:27;;;;;;;0.30;0.30;;;;;;;11.57;99.08;92388.19;564716;26;1024;-71
2024/04/24 00:15:42;;;;;;;0.30;0.30;;;;;;;11.58;99.54;92386.88;564643;26;850;-71
2024/04/24 00:15:58;;;;;;;0.30;0.30;;;;;;;11.58;99.06;92386.88;564872;26;977;-71
2024/04/24 00:16:13;;;;;;;0.30;0.30;;;;;;;11.61;99.25;92388.47;564774;26;932;-71
2024/04/24 00:16:29;;;;;;;0.30;0.30;;;;;;;11.63;99.20;92390.69;564854;26;778;-71
2024/04/24 00:16:44;;;;;;;0.30;0.30;;;;;;;11.63;99.59;92388.63;565348;26;783;-71
2024/04/24 00:16:59;;;;;;;0.20;0.20;;;;;;;11.65;99.41;92390.81;568742;26;782;-71
2024/04/24 00:17:15;;;;;;;0.30;0.30;;;;;;;11.66;99.09;92381.19;568764;26;813;-71
2024/04/24 00:17:30;;;;;;;0.40;0.40;;;;;;;11.67;99.18;92382.69;568847;26;830;-73
2024/04/24 00:17:46;;;;;;;0.40;0.40;;;;;;;11.68;99.24;92393.16;568850;26;929;-71
2024/04/24 00:18:01;;;;;;;0.30;0.30;;;;;;;11.67;99.30;92391.00;568886;26;782;-71
2024/04/24 00:18:17;;;;;;;0.20;0.20;;;;;;;11.67;98.90;92391.00;568825;26;857;-71
2024/04/24 00:18:32;;;;;;;0.30;0.30;;;;;;;11.66;99.16;92389.50;568924;26;1034;-71
2024/04/24 00:18:48;;;;;;;1.73;0.75;;;;;;;11.66;99.19;92393.00;568826;26;925;-71
2024/04/24 00:19:03;;;;;;;2.20;0.90;;;;;;;11.66;98.93;92393.00;568851;26;790;-71
2024/04/24 00:19:19;;;;;;;0.20;0.20;;;;;;;11.68;99.61;92390.41;568738;26;998;-73
2024/04/24 00:19:34;;;;;;;0.20;0.20;;;;;;;11.70;99.37;92389.81;568886;26;951;-71
2024/04/24 00:19:49;;;;;;;0.30;0.30;;;;;;;11.72;99.51;92382.41;568815;26;767;-71
2024/04/24 00:20:05;;;;;;;0.40;0.40;;;;;;;11.73;99.20;92381.09;568804;26;1037;-71
2024/04/24 00:20:21;;;;;;;0.40;0.40;;;;;;;11.76;98.88;92385.44;568785;26;909;-71
2024/04/24 00:20:36;;;;;;;0.30;0.30;;;;;;;11.77;99.44;92383.41;568863;26;1859;-71
2024/04/24 00:20:55;;;;;;;0.60;0.60;;;;;;;11.79;98.62;92378.03;568770;26;897;-71
2024/04/24 00:21:10;;;;;;;0.68;0.68;;;;;;;11.79;98.78;92384.31;568751;26;892;-71
2024/04/24 00:21:26;;;;;;;0.65;0.65;;;;;;;11.77;98.23;92383.41;568921;26;885;-71
2024/04/24 00:21:41;;;;;;;0.40;0.40;;;;;;;11.78;98.83;92374.53;568976;26;794;-71
2024/04/24 00:21:57;;;;;;;0.23;0.23;;;;;;;11.77;98.42;92377.88;569084;26;844;-73
2024/04/24 00:22:12;;;;;;;0.20;0.20;;;;;;;11.77;98.42;92373.09;568938;26;1258;-71
2024/04/24 00:22:27;;;;;;;0.20;0.20;;;;;;;11.72;97.90;92378.91;569041;26;774;-71
2024/04/24 00:22:43;;;;;;;0.90;0.70;;;;;;;11.70;98.28;92370.47;568888;26;872;-71
2024/04/24 00:22:58;;;;;;;0.90;0.70;;;;;;;11.70;98.57;92376.72;568996;26;829;-71
2024/04/24 00:23:14;;;;;;;0.30;0.30;;;;;;;11.71;98.42;92377.47;569105;26;806;-71
2024/04/24 00:23:29;;;;;;;0.30;0.30;;;;;;;11.68;98.40;92367.56;568999;26;845;-71
2024/04/24 00:23:45;;;;;;;0.30;0.30;;;;;;;11.69;98.30;92369.75;569148;26;819;-72
2024/04/24 00:24:00;;;;;;;0.30;0.30;;;;;;;11.67;98.16;92372.38;568982;26;872;-71
2024/04/24 00:24:17;;;;;;;0.30;0.30;;;;;;;11.66;98.34;92370.16;569009;26;809;-71
2024/04/24 00:24:32;;;;;;;0.50;0.50;;;;;;;11.62;98.40;92372.63;568934;26;878;-71
2024/04/24 00:24:48;;;;;;;0.60;0.60;;;;;;;11.63;98.49;92372.03;568958;26;786;-71
2024/04/24 00:25:03;;;;;;;0.38;0.38;;;;;;;11.62;98.25;92376.13;569014;26;841;-71
2024/04/24 00:25:19;;;;;;;0.40;0.40;;;;;;;11.64;98.34;92370.00;568846;26;806;-71
2024/04/24 00:25:37;;;;;;;0.40;0.40;;;;;;;11.64;97.96;92375.53;568996;26;802;-71
2024/04/24 00:25:55;;;;;;;0.50;0.50;;;;;;;11.64;98.02;92373.50;568948;26;980;-71
2024/04/24 00:26:11;;;;;;;0.30;0.30;;;;;;;11.67;98.23;92377.16;568924;26;881;-72
2024/04/24 00:26:26;;;;;;;0.30;0.30;;;;;;;11.68;98.37;92379.34;569082;26;903;-71
2024/04/24 00:26:43;;;;;;;0.40;0.40;;;;;;;11.69;98.32;92383.59;564990;26;897;-71
2024/04/24 00:26:59;;;;;;;0.22;0.22;;;;;;;11.69;98.03;92378.06;564997;26;786;-71
2024/04/24 00:27:14;;;;;;;0.20;0.20;;;;;;;11.71;98.03;92383.72;565039;26;802;-71
2024/04/24 00:27:30;;;;;;;0.20;0.20;;;;;;;11.73;98.18;92381.09;565020;26;818;-71
2024/04/24 00:27:45;;;;;;;0.45;0.45;;;;;;;11.71;97.99;92388.53;565067;26;798;-71
2024/04/24 00:28:01;;;;;;;0.97;0.90;;;;;;;11.70;98.38;92387.78;564909;26;842;-71
2024/04/24 00:28:16;;;;;;;0.82;0.82;;;;;;;11.72;98.23;92385.16;564900;26;850;-72
2024/04/24 00:28:32;;;;;;;0.30;0.30;;;;;;;11.74;97.80;92382.53;565950;26;846;-71
2024/04/24 00:28:47;;;;;;;0.30;0.30;;;;;;;11.76;97.92;92390.28;568763;26;912;-71
2024/04/24 00:29:03;;;;;;;0.20;0.20;;;;;;;11.77;98.04;92391.72;568855;26;853;-72
2024/04/24 00:29:18;;;;;;;0.20;0.20;;;;;;;11.78;97.73;92387.66;568692;26;789;-71
2024/04/24 00:29:34;;;;;;;0.43;0.43;;;;;;;11.79;97.60;92389.09;568799;26;817;-71
2024/04/24 00:29:49;;;;;;;0.40;0.40;;;;;;;11.80;97.83;92382.97;568715;26;868;-73
2024/04/24 00:30:05;;;;;;;0.30;0.30;;;;;;;11.81;97.81;92389.25;568955;26;873;-72
2024/04/24 00:30:20;;;;;;;0.70;0.70;;;;;;;11.80;97.33;92382.97;568630;26;1060;-71
2024/04/24 00:30:36;;;;;;;0.63;0.63;;;;;;;11.77;97.72;92377.88;568829;26;860;-71
2024/04/24 00:30:59;;;;;;;0.30;0.30;;;;;;;11.80;97.99;92380.22;568708;26;896;-71
2024/04/24 00:31:14;;;;;;;0.45;0.45;;;;;;;11.82;98.01;92390.72;568785;26;861;-72
2024/04/24 00:31:30;;;;;;;0.57;0.57;;;;;;;11.82;97.79;92383.16;568575;26;931;-71
2024/04/24 00:31:45;;;;;;;0.27;0.27;;;;;;;11.85;97.69;92381.22;568815;26;970;-71
2024/04/24 00:32:05;;;;;;;0.50;0.50;;;;;;;11.86;97.99;92382.69;568801;26;814;-71
2024/04/24 00:32:20;;;;;;;0.50;0.50;;;;;;;11.85;97.62;92387.50;568690;26;862;-71
2024/04/24 00:32:35;;;;;;;0.20;0.20;;;;;;;11.86;97.73;92386.19;568738;26;826;-71
2024/04/24 00:32:51;;;;;;;0.30;0.30;;;;;;;11.86;98.00;92388.97;568796;26;810;-72
2024/04/24 00:33:06;;;;;;;0.37;0.37;;;;;;;11.85;97.75;92381.97;568880;26;803;-72
2024/04/24 00:33:22;;;;;;;0.50;0.50;;;;;;;11.85;97.13;92387.50;568762;26;797;-72
2024/04/24 00:33:37;;;;;;;0.50;0.50;;;;;;;11.86;97.31;92380.66;568734;26;932;-72
2024/04/24 00:33:53;;;;;;;0.30;0.30;;;;;;;11.84;97.56;92375.00;568842;26;845;-72
2024/04/24 00:34:08;;;;;;;0.30;0.30;;;;;;;11.83;97.43;92378.31;568847;26;840;-72
2024/04/24 00:34:23;;;;;;;0.20;0.20;;;;;;;11.85;97.36;92381.97;568595;26;945;-71
2024/04/24 00:34:39;;;;;;;0.30;0.30;;;;;;;11.88;97.52;92380.06;568782;26;818;-71
2024/04/24 00:34:54;;;;;;;0.30;0.30;;;;;;;11.90;97.45;92377.44;568834;26;826;-71
2024/04/24 00:35:10;;;;;;;0.20;0.20;;;;;;;11.90;97.46;92378.19;568685;26;921;-71
2024/04/24 00:35:26;;;;;;;0.30;0.30;;;;;;;11.91;97.43;92378.91;568763;26;809;-72
2024/04/24 00:35:41;;;;;;;0.55;0.55;;;;;;;11.89;97.12;92379.47;568789;26;782;-71
2024/04/24 00:35:56;;;;;;;0.97;0.97;;;;;;;11.88;97.24;92375.28;568774;26;856;-71
2024/04/24 00:36:12;;;;;;;0.57;0.57;;;;;;;11.87;97.73;92371.03;568733;26;818;-71
2024/04/24 00:36:29;;;;;;;0.33;0.33;;;;;;;11.87;97.32;92373.81;568723;26;790;-71
2024/04/24 00:36:45;;;;;;;0.40;0.40;;;;;;;11.87;97.42;92368.28;568759;26;861;-71
2024/04/24 00:37:00;;;;;;;0.20;0.20;;;;;;;11.90;97.27;92369.16;568752;26;880;-71
2024/04/24 00:37:16;;;;;;;0.20;0.20;;;;;;;11.90;97.39;92374.69;568775;26;825;-71
2024/04/24 00:37:31;;;;;;;0.22;0.22;;;;;;;11.89;97.07;92362.88;568749;26;825;-71
2024/04/24 00:37:46;;;;;;;0.40;0.40;;;;;;;11.89;97.37;92367.72;568771;26;1001;-71
2024/04/24 00:38:02;;;;;;;0.45;0.45;;;;;;;11.90;97.17;92372.66;568795;26;786;-71
2024/04/24 00:38:17;;;;;;;0.60;0.60;;;;;;;11.91;97.13;92373.38;568739;26;834;-71
2024/04/24 00:38:33;;;;;;;0.70;0.70;;;;;;;11.87;97.01;92359.25;568715;26;1029;-71
2024/04/24 00:38:48;;;;;;;0.40;0.40;;;;;;;11.92;97.00;92367.25;568833;26;952;-71
2024/04/24 00:39:04;;;;;;;0.30;0.30;;;;;;;11.92;96.80;92370.03;568872;26;782;-71
2024/04/24 00:39:19;;;;;;;0.40;0.40;;;;;;;11.92;97.19;92367.25;568623;26;798;-73
2024/04/24 00:39:35;;;;;;;0.33;0.33;;;;;;;11.94;96.32;92372.19;568870;26;794;-71
2024/04/24 00:39:50;;;;;;;0.80;0.80;;;;;;;11.94;96.48;92375.69;568835;26;897;-71
2024/04/24 00:40:06;;;;;;;0.80;0.80;;;;;;;11.84;96.31;92354.91;568889;26;833;-71
2024/04/24 00:40:22;;;;;;;0.60;0.60;;;;;;;11.95;96.48;92374.38;568684;26;955;-71
2024/04/24 00:40:40;;;;;;;0.60;0.60;;;;;;;11.96;96.18;92375.13;568698;26;1865;-71
2024/04/24 00:40:56;;;;;;;0.30;0.30;;;;;;;11.95;96.33;92374.38;564762;26;1144;-71
2024/04/24 00:41:11;;;;;;;0.30;0.30;;;;;;;11.96;96.32;92372.34;564800;26;857;-71
2024/04/24 00:41:26;;;;;;;0.30;0.30;;;;;;;11.97;96.25;92379.34;564767;26;936;-71
2024/04/24 00:41:42;;;;;;;0.37;0.37;;;;;;;11.98;96.20;92378.75;564829;26;810;-71
2024/04/24 00:41:57;;;;;;;0.30;0.30;;;;;;;12.00;96.14;92370.59;564759;26;817;-71
2024/04/24 00:42:19;;;;;;;0.50;0.50;;;;;;;12.01;95.76;92376.88;564812;26;940;-71
2024/04/24 00:42:35;;;;;;;0.60;0.40;;;;;;;12.02;95.69;92379.03;564768;26;870;-71
2024/04/24 00:42:51;;;;;;;0.30;0.30;;;;;;;12.03;96.01;92385.31;567059;26;837;-71
2024/04/24 00:43:06;;;;;;;0.30;0.30;;;;;;;12.04;96.07;92379.19;569007;26;778;-71
2024/04/24 00:43:21;;;;;;;0.30;0.30;;;;;;;12.06;96.13;92376.56;568672;26;1065;-71
2024/04/24 00:43:37;;;;;;;0.30;0.30;;;;;;;12.07;95.92;92380.78;568934;26;786;-71
2024/04/24 00:43:52;;;;;;;0.30;0.30;;;;;;;12.08;95.98;92376.69;568940;26;853;-71
2024/04/24 00:44:08;;;;;;;0.30;0.30;;;;;;;12.09;95.81;92378.16;569027;26;936;-71
2024/04/24 00:44:23;;;;;;;0.20;0.20;;;;;;;12.09;95.59;92378.16;568908;26;875;-71
2024/04/24 00:44:39;;;;;;;0.30;0.30;;;;;;;12.10;95.68;92368.56;568985;26;818;-71
2024/04/24 00:44:54;;;;;;;0.20;0.20;;;;;;;12.11;96.09;92380.34;568912;26;1353;-71
2024/04/24 00:45:10;;;;;;;0.30;0.30;;;;;;;12.10;95.64;92374.09;569003;26;873;-71
2024/04/24 00:45:25;;;;;;;0.60;0.60;;;;;;;12.11;95.40;92383.84;568949;26;852;-71
2024/04/24 00:45:40;;;;;;;0.50;0.50;;;;;;;12.11;95.71;92372.78;568938;26;909;-71
2024/04/24 00:45:58;;;;;;;0.30;0.30;;;;;;;12.11;95.64;92377.56;569151;26;948;-71
2024/04/24 00:46:15;;;;;;;0.40;0.40;;;;;;;12.12;95.52;92374.25;568921;26;857;-71
2024/04/24 00:46:32;;;;;;;0.50;0.50;;;;;;;12.12;95.63;92362.44;568857;26;963;-72
2024/04/24 00:46:48;;;;;;;0.30;0.30;;;;;;;12.09;95.71;92369.13;565072;26;901;-71
2024/04/24 00:47:04;;;;;;;0.35;0.35;;;;;;;12.13;95.68;92367.38;561213;26;1012;-71
2024/04/24 00:47:20;;;;;;;0.30;0.30;;;;;;;12.14;95.40;92371.63;561152;26;834;-71
2024/04/24 00:47:36;;;;;;;0.20;0.20;;;;;;;12.15;95.54;92367.53;557330;26;847;-71
2024/04/24 00:47:52;;;;;;;0.20;0.20;;;;;;;12.16;95.31;92365.50;557506;26;865;-71
2024/04/24 00:48:08;;;;;;;0.30;0.30;;;;;;;12.15;95.07;92364.03;553913;26;808;-71
2024/04/24 00:48:25;;;;;;;0.30;0.30;;;;;;;12.13;95.02;92372.91;550276;26;1009;-71
2024/04/24 00:48:41;;;;;;;0.30;0.30;;;;;;;12.11;94.96;92364.47;550237;26;874;-71
2024/04/24 00:48:57;;;;;;;0.43;0.43;;;;;;;12.11;94.96;92358.94;550239;26;847;-71
2024/04/24 00:49:13;;;;;;;1.10;1.00;;;;;;;12.12;95.31;92365.94;552022;26;962;-71
2024/04/24 00:49:29;;;;;;;0.50;0.50;;;;;;;12.12;95.13;92363.16;555686;26;902;-71
2024/04/24 00:49:45;;;;;;;0.20;0.20;;;;;;;12.10;95.22;92357.50;557563;26;871;-71
2024/04/24 00:50:00;;;;;;;0.20;0.20;;;;;;;12.06;94.51;92351.66;555554;26;977;-71
2024/04/24 00:50:16;;;;;;;0.20;0.20;;;;;;;12.06;94.83;92357.19;559147;26;1047;-71
2024/04/24 00:50:32;;;;;;;0.20;0.20;;;;;;;12.06;94.63;92364.78;561040;26;812;-71
2024/04/24 00:50:48;;;;;;;0.20;0.20;;;;;;;12.04;94.64;92359.81;558889;26;850;-71
2024/04/24 00:51:04;;;;;;;0.30;0.30;;;;;;;12.00;94.42;92362.31;557456;26;936;-71
2024/04/24 00:51:21;;;;;;;0.35;0.35;;;;;;;11.99;94.41;92357.34;557464;26;865;-71
2024/04/24 00:51:38;;;;;;;0.65;0.65;;;;;;;11.93;94.26;92354.88;557595;26;850;-71
2024/04/24 00:51:54;;;;;;;0.73;0.73;;;;;;;11.97;94.21;92354.44;557428;26;1170;-71
2024/04/24 00:52:10;;;;;;;0.70;0.70;;;;;;;11.92;94.48;92353.44;557441;26;962;-72
2024/04/24 00:52:25;;;;;;;0.70;0.70;;;;;;;11.89;94.84;92354.59;557560;26;855;-71
2024/04/24 00:52:41;;;;;;;0.40;0.40;;;;;;;11.86;95.03;92346.75;559046;26;806;-71
2024/04/24 00:52:56;;;;;;;0.20;0.20;;;;;;;11.84;94.38;92355.63;562899;26;799;-71
2024/04/24 00:53:12;;;;;;;0.57;0.57;;;;;;;11.79;94.82;92353.16;562613;26;1089;-71
2024/04/24 00:53:27;;;;;;;0.70;0.70;;;;;;;11.80;94.85;92349.78;564960;26;778;-72
2024/04/24 00:53:43;;;;;;;0.50;0.50;;;;;;;11.72;95.15;92354.75;564974;26;1017;-71
2024/04/24 00:53:59;;;;;;;0.40;0.40;;;;;;;11.66;95.79;92346.00;565033;26;921;-71
2024/04/24 00:54:14;;;;;;;0.30;0.30;;;;;;;11.65;95.57;92343.81;564989;26;949;-71
2024/04/24 00:54:30;;;;;;;0.30;0.30;;;;;;;11.64;95.81;92350.66;561093;26;945;-71
2024/04/24 00:54:45;;;;;;;0.30;0.30;;;;;;;11.63;96.31;92344.38;561282;26;846;-71
2024/04/24 00:55:01;;;;;;;0.30;0.30;;;;;;;11.58;96.31;92345.41;561880;26;913;-71
2024/04/24 00:55:16;;;;;;;0.30;0.30;;;;;;;11.53;96.43;92349.19;564991;26;1016;-71
2024/04/24 00:55:32;;;;;;;0.47;0.47;;;;;;;11.53;96.87;92343.66;564917;26;866;-71
2024/04/24 00:55:48;;;;;;;0.30;0.30;;;;;;;11.54;96.39;92342.38;561063;26;874;-71
2024/04/24 00:56:04;;;;;;;0.30;0.30;;;;;;;11.55;96.94;92346.56;561120;26;855;-71
2024/04/24 00:56:20;;;;;;;0.50;0.50;;;;;;;11.55;96.57;92349.34;562133;26;882;-71
2024/04/24 00:56:35;;;;;;;0.40;0.40;;;;;;;11.56;96.67;92347.31;565022;26;810;-73
2024/04/24 00:56:51;;;;;;;0.40;0.40;;;;;;;11.55;97.14;92343.06;561194;26;802;-71
2024/04/24 00:57:06;;;;;;;0.40;0.40;;;;;;;11.55;96.55;92354.13;561360;26;846;-71
2024/04/24 00:57:22;;;;;;;0.30;0.30;;;;;;;11.53;96.94;92340.91;561034;26;869;-71
2024/04/24 00:57:37;;;;;;;0.40;0.40;;;;;;;11.52;96.57;92344.97;558381;26;772;-71
2024/04/24 00:57:54;;;;;;;0.30;0.30;;;;;;;11.52;97.04;92350.50;561133;26;973;-71
2024/04/24 00:58:09;;;;;;;0.20;0.20;;;;;;;11.52;96.64;92342.19;557432;26;874;-72
2024/04/24 00:58:25;;;;;;;0.20;0.20;;;;;;;11.54;96.84;92350.66;557089;26;843;-71
2024/04/24 00:58:40;;;;;;;0.20;0.20;;;;;;;11.54;97.16;92350.66;557894;26;1090;-71
2024/04/24 00:58:57;;;;;;;0.30;0.30;;;;;;;11.55;97.13;92354.13;557288;26;810;-71
2024/04/24 00:59:13;;;;;;;0.30;0.30;;;;;;;11.56;97.26;92348.03;557529;26;1028;-71
2024/04/24 00:59:28;;;;;;;0.30;0.30;;;;;;;11.59;97.20;92354.41;558843;26;814;-71
2024/04/24 00:59:44;;;;;;;0.60;0.60;;;;;;;11.59;97.57;92346.13;561243;26;920;-71
2024/04/24 01:00:00;;;;;;;0.57;0.57;;;;;;;11.61;97.07;92352.53;562254;26;854;-71
2024/04/24 01:00:16;;;;;;;0.30;0.30;;;;;;;11.63;96.69;92349.22;561144;26;920;-71
2024/04/24 01:00:31;;;;;;;0.30;0.30;;;;;;;11.65;97.09;92350.06;561126;26;1849;-72
2024/04/24 01:00:48;;;;;;;0.20;0.20;;;;;;;11.65;97.00;92344.53;562363;26;890;-71
2024/04/24 01:01:05;;;;;;;0.20;0.20;;;;;;;11.57;96.93;92346.72;561225;26;901;-73
2024/04/24 01:01:23;;;;;;;0.30;0.30;;;;;;;11.52;97.03;92347.72;561054;26;898;-71
2024/04/24 01:01:38;;;;;;;0.50;0.50;;;;;;;11.52;96.89;92347.03;557513;26;850;-71
2024/04/24 01:01:54;;;;;;;0.60;0.60;;;;;;;11.52;97.32;92347.72;557535;26;794;-72
2024/04/24 01:02:09;;;;;;;0.40;0.40;;;;;;;11.52;96.88;92344.97;559404;26;903;-71
2024/04/24 01:02:25;;;;;;;0.40;0.40;;;;;;;11.50;97.29;92342.06;561218;26;932;-72
2024/04/24 01:02:41;;;;;;;0.60;0.60;;;;;;;11.53;96.99;92345.69;561082;26;918;-72
2024/04/24 01:02:56;;;;;;;0.40;0.40;;;;;;;11.52;97.44;92338.72;562910;26;854;-72
2024/04/24 01:03:12;;;;;;;0.30;0.30;;;;;;;11.52;97.10;92344.25;564951;26;873;-72
2024/04/24 01:03:27;;;;;;;0.30;0.30;;;;;;;11.52;97.27;92342.19;565090;26;810;-72
2024/04/24 01:03:43;;;;;;;0.30;0.30;;;;;;;11.53;97.30;92348.47;565656;26;968;-71
2024/04/24 01:03:58;;;;;;;0.50;0.50;;;;;;;11.53;97.21;92346.44;564995;26;837;-73
2024/04/24 01:04:14;;;;;;;0.40;0.40;;;;;;;11.51;96.91;92348.31;564553;26;877;-72
2024/04/24 01:04:29;;;;;;;0.37;0.37;;;;;;;11.46;97.26;92352.13;564640;26;940;-72
2024/04/24 01:04:44;;;;;;;0.32;0.32;;;;;;;11.43;97.44;92351.22;564736;26;848;-71
2024/04/24 01:05:00;;;;;;;0.30;0.30;;;;;;;11.39;97.42;92345.41;564533;26;1430;-71
2024/04/24 01:05:15;;;;;;;0.30;0.30;;;;;;;11.38;97.92;92347.44;564712;26;806;-71
2024/04/24 01:05:33;;;;;;;0.20;0.20;;;;;;;11.38;97.82;92347.44;564583;26;825;-72
2024/04/24 01:05:48;;;;;;;0.20;0.20;;;;;;;11.37;97.48;92348.75;565881;26;873;-73
2024/04/24 01:06:04;;;;;;;0.30;0.30;;;;;;;11.38;98.12;92355.00;568916;26;868;-72
2024/04/24 01:06:19;;;;;;;0.30;0.30;;;;;;;11.36;98.43;92352.81;568964;26;798;-71
2024/04/24 01:06:35;;;;;;;0.35;0.35;;;;;;;11.38;98.04;92355.75;568998;26;828;-71
2024/04/24 01:06:50;;;;;;;0.40;0.40;;;;;;;11.39;98.40;92357.19;568845;26;901;-71
2024/04/24 01:07:06;;;;;;;0.30;0.30;;;;;;;11.38;98.27;92352.97;569017;26;806;-71
2024/04/24 01:07:21;;;;;;;0.30;0.30;;;;;;;11.40;98.45;92349.63;568936;26;837;-71
2024/04/24 01:07:37;;;;;;;0.50;0.50;;;;;;;11.39;98.31;92345.41;568965;26;902;-71
2024/04/24 01:07:52;;;;;;;0.40;0.40;;;;;;;11.41;98.40;92351.78;568907;26;873;-71
2024/04/24 01:08:07;;;;;;;0.30;0.30;;;;;;;11.42;98.16;92352.53;568977;26;924;-71
2024/04/24 01:08:23;;;;;;;0.30;0.30;;;;;;;11.44;98.71;92352.69;568769;26;818;-71
2024/04/24 01:08:38;;;;;;;0.20;0.20;;;;;;;11.47;98.67;92353.56;564943;26;854;-71
2024/04/24 01:08:54;;;;;;;0.40;0.40;;;;;;;11.35;98.37;92339.56;564975;26;859;-71
2024/04/24 01:09:09;;;;;;;0.50;0.50;;;;;;;11.49;98.13;92346.13;561063;26;1274;-71
2024/04/24 01:09:25;;;;;;;0.30;0.30;;;;;;;11.49;97.99;92348.91;561254;26;912;-71
2024/04/24 01:09:40;;;;;;;0.30;0.30;;;;;;;11.48;98.41;92352.97;561059;26;915;-71
2024/04/24 01:09:56;;;;;;;0.30;0.30;;;;;;;11.49;98.63;92354.44;561210;26;790;-71
2024/04/24 01:10:15;;;;;;;0.30;0.30;;;;;;;11.49;98.07;92351.66;561228;26;802;-71
2024/04/24 01:10:30;;;;;;;0.20;0.20;;;;;;;11.50;98.49;92353.09;562741;26;866;-71
2024/04/24 01:10:46;;;;;;;0.20;0.20;;;;;;;11.51;98.42;92351.09;564975;26;1020;-71
2024/04/24 01:11:01;;;;;;;0.20;0.20;;;;;;;11.52;97.84;92355.31;562451;26;1193;-71
2024/04/24 01:11:17;;;;;;;0.20;0.20;;;;;;;11.52;97.92;92350.50;564916;26;854;-71
2024/04/24 01:11:32;;;;;;;0.20;0.20;;;;;;;11.48;98.62;92347.44;564914;26;868;-71
2024/04/24 01:11:48;;;;;;;0.30;0.30;;;;;;;11.50;98.44;92347.59;564929;26;802;-71
2024/04/24 01:12:03;;;;;;;0.50;0.50;;;;;;;11.51;98.43;92346.28;564941;26;881;-72
2024/04/24 01:12:19;;;;;;;0.50;0.50;;;;;;;11.53;98.50;92345.69;564890;26;905;-71
2024/04/24 01:12:34;;;;;;;0.38;0.38;;;;;;;11.53;98.46;92340.16;564887;26;944;-71
2024/04/24 01:12:50;;;;;;;0.40;0.40;;;;;;;11.54;98.42;92345.13;565605;26;786;-71
2024/04/24 01:13:05;;;;;;;0.20;0.20;;;;;;;11.55;97.91;92345.84;569038;26;810;-71
2024/04/24 01:13:20;;;;;;;0.30;0.30;;;;;;;11.57;98.35;92351.50;568974;26;898;-71
2024/04/24 01:13:36;;;;;;;0.40;0.40;;;;;;;11.56;97.96;92348.03;568978;26;921;-71
2024/04/24 01:13:51;;;;;;;0.30;0.30;;;;;;;11.58;98.00;92347.44;568787;26;794;-71
2024/04/24 01:14:07;;;;;;;0.40;0.40;;;;;;;11.58;98.37;92348.19;568990;26;940;-71
2024/04/24 01:14:22;;;;;;;0.57;0.57;;;;;;;11.60;98.01;92356.63;564899;26;830;-71
2024/04/24 01:14:38;;;;;;;0.50;0.50;;;;;;;11.61;97.84;92354.59;564865;26;916;-71
2024/04/24 01:14:53;;;;;;;0.40;0.40;;;;;;;11.63;97.76;92346.44;564899;26;786;-71
2024/04/24 01:15:09;;;;;;;0.40;0.40;;;;;;;11.48;97.71;92333.63;561233;26;944;-72
2024/04/24 01:15:24;;;;;;;0.30;0.30;;;;;;;11.53;97.92;92345.69;557406;26;954;-72
2024/04/24 01:15:40;;;;;;;0.40;0.40;;;;;;;11.51;97.83;92346.28;557523;26;831;-72
2024/04/24 01:16:00;;;;;;;0.40;0.40;;;;;;;11.50;97.97;92349.63;553933;26;965;-72
2024/04/24 01:16:21;;;;;;;0.30;0.30;;;;;;;11.49;97.65;92343.38;552231;26;831;-72
2024/04/24 01:16:39;;;;;;;0.30;0.30;;;;;;;11.50;98.05;92347.59;553778;26;930;-71
2024/04/24 01:16:55;;;;;;;0.40;0.40;;;;;;;11.49;98.29;92345.41;550279;26;906;-71